Terminal Aerodrome Forecast
Issued by NWS Detroit/Pontiac, MI

Home | Current Version | Previous Version | Text Only | Print | Product List | Glossary On
Versions: 1 2 3 4 5 6 7 8 9 10 11 12 13 14 15 16 17 18 19 20 21 22 23 24 25 26 27 28 29 30 31
371
FTUS43 KDTX 261727
TAFDTW
TAF
KDTW 261727Z 2618/2724 21015G28KT P6SM BKN070 OVC120
     FM270100 23013KT P6SM SCT050
     FM270800 25005KT P6SM SCT250
     FM271900 20007KT P6SM SCT045=

USA.gov is the U.S. government's official web portal to all federal, state and local government web resources and services.